sensor_id;sensor_type;location;lat;lon;timestamp;pressure;altitude;pressure_sealevel;temperature;humidity
67545;BME280;54380;47.770;11.150;2023-08-06T06:31:44;94089.03;;;16.74;62.75
67545;BME280;54380;47.770;11.150;2023-08-06T06:34:11;94100.09;;;16.89;62.32
67545;BME280;54380;47.770;11.150;2023-08-06T06:36:37;94098.91;;;17.04;61.50
67545;BME280;54380;47.770;11.150;2023-08-06T06:39:20;94098.47;;;17.20;60.60
67545;BME280;54380;47.770;11.150;2023-08-06T06:41:50;94102.72;;;17.29;60.13
67545;BME280;54380;47.770;11.150;2023-08-06T06:44:24;94100.38;;;17.28;59.42
67545;BME280;54380;47.770;11.150;2023-08-06T06:46:53;94099.25;;;17.20;59.70
67545;BME280;54380;47.770;11.150;2023-08-06T06:49:33;94109.59;;;17.13;59.72
67545;BME280;54380;47.770;11.150;2023-08-06T06:52:00;94101.09;;;17.02;59.80
67545;BME280;54380;47.770;11.150;2023-08-06T06:54:27;94108.94;;;16.99;59.75
67545;BME280;54380;47.770;11.150;2023-08-06T06:57:01;94117.06;;;16.94;59.92
67545;BME280;54380;47.770;11.150;2023-08-06T06:59:28;94112.16;;;16.87;60.08
67545;BME280;54380;47.770;11.150;2023-08-06T07:01:58;94111.22;;;16.83;60.33
67545;BME280;54380;47.770;11.150;2023-08-06T07:04:38;94136.78;;;16.84;60.38
67545;BME280;54380;47.770;11.150;2023-08-06T07:07:16;94137.06;;;16.82;60.09
67545;BME280;54380;47.770;11.150;2023-08-06T07:09:56;94145.22;;;16.77;60.29
67545;BME280;54380;47.770;11.150;2023-08-06T07:12:23;94149.84;;;16.72;60.61
67545;BME280;54380;47.770;11.150;2023-08-06T07:14:50;94152.59;;;16.58;61.07
67545;BME280;54380;47.770;11.150;2023-08-06T07:17:18;94150.31;;;16.42;61.59
67545;BME280;54380;47.770;11.150;2023-08-06T07:19:46;94150.69;;;16.27;62.08
67545;BME280;54380;47.770;11.150;2023-08-06T07:22:16;94147.19;;;16.18;62.51
67545;BME280;54380;47.770;11.150;2023-08-06T07:24:43;94154.50;;;16.12;62.76
67545;BME280;54380;47.770;11.150;2023-08-06T07:27:24;94154.03;;;16.10;62.82
67545;BME280;54380;47.770;11.150;2023-08-06T07:29:51;94147.59;;;16.11;63.03
67545;BME280;54380;47.770;11.150;2023-08-06T07:32:35;94149.97;;;16.13;63.06
67545;BME280;54380;47.770;11.150;2023-08-06T07:35:02;94145.25;;;16.10;62.86
67545;BME280;54380;47.770;11.150;2023-08-06T07:37:31;94141.38;;;16.16;63.02
67545;BME280;54380;47.770;11.150;2023-08-06T07:40:13;94146.41;;;16.17;62.96
67545;BME280;54380;47.770;11.150;2023-08-06T07:42:40;94143.91;;;16.21;62.97
67545;BME280;54380;47.770;11.150;2023-08-06T07:45:09;94153.66;;;16.26;62.39
67545;BME280;54380;47.770;11.150;2023-08-06T07:47:42;94160.88;;;16.25;62.53
67545;BME280;54380;47.770;11.150;2023-08-06T07:50:09;94152.28;;;16.28;62.71
67545;BME280;54380;47.770;11.150;2023-08-06T07:52:40;94156.63;;;16.24;61.85
67545;BME280;54380;47.770;11.150;2023-08-06T07:55:07;94163.53;;;16.25;62.50
67545;BME280;54380;47.770;11.150;2023-08-06T07:57:53;94163.88;;;16.32;62.15
67545;BME280;54380;47.770;11.150;2023-08-06T08:00:33;94148.09;;;16.36;62.03
67545;BME280;54380;47.770;11.150;2023-08-06T08:05:57;94144.97;;;16.42;61.89
67545;BME280;54380;47.770;11.150;2023-08-06T08:08:24;94146.38;;;16.40;61.79
67545;BME280;54380;47.770;11.150;2023-08-06T08:10:51;94155.50;;;16.48;61.74
67545;BME280;54380;47.770;11.150;2023-08-06T08:13:27;94167.16;;;16.52;60.72
67545;BME280;54380;47.770;11.150;2023-08-06T08:15:56;94151.28;;;16.46;60.70
67545;BME280;54380;47.770;11.150;2023-08-06T08:18:23;94151.97;;;16.61;61.11
67545;BME280;54380;47.770;11.150;2023-08-06T08:20:50;94155.72;;;16.82;60.59
67545;BME280;54380;47.770;11.150;2023-08-06T08:23:35;94155.31;;;16.98;60.26
67545;BME280;54380;47.770;11.150;2023-08-06T08:26:02;94149.41;;;17.09;58.92
67545;BME280;54380;47.770;11.150;2023-08-06T08:28:34;94160.38;;;17.08;59.31
67545;BME280;54380;47.770;11.150;2023-08-06T08:31:02;94172.78;;;17.13;59.10
67545;BME280;54380;47.770;11.150;2023-08-06T08:33:28;94158.69;;;17.21;59.13
67545;BME280;54380;47.770;11.150;2023-08-06T08:35:55;94165.81;;;17.34;59.44
67545;BME280;54380;47.770;11.150;2023-08-06T08:38:22;94173.38;;;17.49;58.35
67545;BME280;54380;47.770;11.150;2023-08-06T08:40:51;94166.63;;;17.52;58.21
67545;BME280;54380;47.770;11.150;2023-08-06T08:43:18;94173.88;;;17.60;57.81
67545;BME280;54380;47.770;11.150;2023-08-06T08:46:01;94179.38;;;17.72;57.99
67545;BME280;54380;47.770;11.150;2023-08-06T08:48:28;94194.31;;;17.82;57.65
67545;BME280;54380;47.770;11.150;2023-08-06T08:50:59;94188.22;;;17.82;56.49
67545;BME280;54380;47.770;11.150;2023-08-06T08:53:26;94213.13;;;17.77;56.56
67545;BME280;54380;47.770;11.150;2023-08-06T08:55:54;94202.59;;;17.72;56.87
67545;BME280;54380;47.770;11.150;2023-08-06T08:58:21;94204.34;;;17.68;55.46
67545;BME280;54380;47.770;11.150;2023-08-06T09:00:48;94209.53;;;17.64;56.36
67545;BME280;54380;47.770;11.150;2023-08-06T09:03:15;94197.75;;;17.65;56.48
67545;BME280;54380;47.770;11.150;2023-08-06T09:05:43;94208.75;;;17.72;56.84
67545;BME280;54380;47.770;11.150;2023-08-06T09:08:11;94203.59;;;17.85;56.49
67545;BME280;54380;47.770;11.150;2023-08-06T09:10:38;94204.72;;;17.92;55.17
67545;BME280;54380;47.770;11.150;2023-08-06T09:13:06;94189.31;;;17.81;54.97
67545;BME280;54380;47.770;11.150;2023-08-06T09:15:35;94208.16;;;17.84;55.48
67545;BME280;54380;47.770;11.150;2023-08-06T09:18:08;94205.34;;;17.81;54.95
67545;BME280;54380;47.770;11.150;2023-08-06T09:20:35;94191.78;;;17.77;55.42
67545;BME280;54380;47.770;11.150;2023-08-06T09:23:06;94200.47;;;17.83;55.84
67545;BME280;54380;47.770;11.150;2023-08-06T09:25:33;94198.75;;;17.87;55.56
67545;BME280;54380;47.770;11.150;2023-08-06T09:27:59;94199.22;;;17.89;55.38
67545;BME280;54380;47.770;11.150;2023-08-06T09:30:30;94207.53;;;17.87;55.76
67545;BME280;54380;47.770;11.150;2023-08-06T09:32:58;94215.69;;;17.82;55.50
67545;BME280;54380;47.770;11.150;2023-08-06T09:35:27;94205.75;;;17.74;54.00
67545;BME280;54380;47.770;11.150;2023-08-06T09:37:54;94211.09;;;17.65;55.35
67545;BME280;54380;47.770;11.150;2023-08-06T09:40:24;94216.84;;;17.59;55.48
67545;BME280;54380;47.770;11.150;2023-08-06T09:42:51;94209.47;;;17.55;56.08
67545;BME280;54380;47.770;11.150;2023-08-06T09:45:17;94208.69;;;17.46;56.35
67545;BME280;54380;47.770;11.150;2023-08-06T09:47:45;94219.66;;;17.45;56.82
67545;BME280;54380;47.770;11.150;2023-08-06T09:50:14;94210.72;;;17.41;57.16
67545;BME280;54380;47.770;11.150;2023-08-06T09:52:41;94214.31;;;17.45;57.13
67545;BME280;54380;47.770;11.150;2023-08-06T09:55:08;94215.56;;;17.39;56.98
67545;BME280;54380;47.770;11.150;2023-08-06T09:57:36;94201.25;;;17.34;57.46
67545;BME280;54380;47.770;11.150;2023-08-06T10:00:03;94215.69;;;17.33;57.46
67545;BME280;54380;47.770;11.150;2023-08-06T10:02:38;94213.47;;;17.27;57.62
67545;BME280;54380;47.770;11.150;2023-08-06T10:05:07;94218.16;;;17.21;57.92
67545;BME280;54380;47.770;11.150;2023-08-06T10:07:34;94212.94;;;17.16;58.41
67545;BME280;54380;47.770;11.150;2023-08-06T10:10:01;94216.56;;;17.11;58.60
67545;BME280;54380;47.770;11.150;2023-08-06T10:12:29;94212.31;;;17.10;58.79
67545;BME280;54380;47.770;11.150;2023-08-06T10:14:59;94214.97;;;17.10;58.81
67545;BME280;54380;47.770;11.150;2023-08-06T10:17:27;94219.03;;;17.08;58.66
67545;BME280;54380;47.770;11.150;2023-08-06T10:20:15;94221.66;;;16.99;58.84
67545;BME280;54380;47.770;11.150;2023-08-06T10:22:42;94213.81;;;16.94;59.05
67545;BME280;54380;47.770;11.150;2023-08-06T10:25:10;94215.50;;;16.90;58.97
67545;BME280;54380;47.770;11.150;2023-08-06T10:27:39;94221.03;;;16.94;59.41
67545;BME280;54380;47.770;11.150;2023-08-06T10:30:21;94219.13;;;16.94;59.72
67545;BME280;54380;47.770;11.150;2023-08-06T10:32:51;94225.72;;;16.97;59.63
67545;BME280;54380;47.770;11.150;2023-08-06T10:35:30;94231.06;;;16.97;59.83
67545;BME280;54380;47.770;11.150;2023-08-06T10:38:02;94235.00;;;16.99;59.26
67545;BME280;54380;47.770;11.150;2023-08-06T10:40:29;94237.00;;;16.94;59.57
67545;BME280;54380;47.770;11.150;2023-08-06T10:42:58;94228.66;;;16.86;59.56
67545;BME280;54380;47.770;11.150;2023-08-06T10:45:24;94235.38;;;16.84;59.92
67545;BME280;54380;47.770;11.150;2023-08-06T10:47:55;94230.34;;;16.82;60.15
67545;BME280;54380;47.770;11.150;2023-08-06T10:50:23;94236.78;;;16.81;60.27
67545;BME280;54380;47.770;11.150;2023-08-06T10:52:51;94234.59;;;16.83;60.26
67545;BME280;54380;47.770;11.150;2023-08-06T10:55:22;94244.28;;;16.79;60.26
67545;BME280;54380;47.770;11.150;2023-08-06T10:57:48;94248.75;;;16.70;60.31
67545;BME280;54380;47.770;11.150;2023-08-06T11:00:15;94250.75;;;16.64;60.53
67545;BME280;54380;47.770;11.150;2023-08-06T11:02:42;94250.69;;;16.56;60.37
67545;BME280;54380;47.770;11.150;2023-08-06T11:05:11;94244.03;;;16.44;60.95
67545;BME280;54380;47.770;11.150;2023-08-06T11:07:38;94245.16;;;16.30;61.16
67545;BME280;54380;47.770;11.150;2023-08-06T11:10:07;94249.81;;;16.24;61.37
67545;BME280;54380;47.770;11.150;2023-08-06T11:12:34;94245.59;;;16.23;61.64
67545;BME280;54380;47.770;11.150;2023-08-06T11:15:01;94241.25;;;16.13;61.91
67545;BME280;54380;47.770;11.150;2023-08-06T11:17:28;94240.59;;;16.08;61.91
67545;BME280;54380;47.770;11.150;2023-08-06T11:19:56;94235.94;;;16.13;62.32
67545;BME280;54380;47.770;11.150;2023-08-06T11:22:25;94248.66;;;16.16;61.81
67545;BME280;54380;47.770;11.150;2023-08-06T11:24:52;94251.81;;;16.18;61.75
67545;BME280;54380;47.770;11.150;2023-08-06T11:27:20;94252.69;;;16.28;61.94
67545;BME280;54380;47.770;11.150;2023-08-06T11:29:47;94262.53;;;16.27;61.68
67545;BME280;54380;47.770;11.150;2023-08-06T11:32:13;94256.22;;;16.23;61.51
67545;BME280;54380;47.770;11.150;2023-08-06T11:34:43;94266.59;;;16.24;61.88
67545;BME280;54380;47.770;11.150;2023-08-06T11:37:10;94272.59;;;16.30;61.69
67545;BME280;54380;47.770;11.150;2023-08-06T11:39:37;94268.72;;;16.36;61.75
67545;BME280;54380;47.770;11.150;2023-08-06T11:42:05;94262.91;;;16.34;61.81
67545;BME280;54380;47.770;11.150;2023-08-06T11:44:34;94272.47;;;16.35;61.65
67545;BME280;54380;47.770;11.150;2023-08-06T11:47:01;94271.28;;;16.41;61.70
67545;BME280;54380;47.770;11.150;2023-08-06T11:49:38;94262.84;;;16.48;61.67
67545;BME280;54380;47.770;11.150;2023-08-06T11:52:08;94249.91;;;16.55;60.82
67545;BME280;54380;47.770;11.150;2023-08-06T11:54:34;94257.72;;;16.52;59.62
67545;BME280;54380;47.770;11.150;2023-08-06T11:57:03;94248.75;;;16.48;60.67
67545;BME280;54380;47.770;11.150;2023-08-06T11:59:31;94250.38;;;16.57;61.00
67545;BME280;54380;47.770;11.150;2023-08-06T12:01:59;94237.13;;;16.66;60.92
67545;BME280;54380;47.770;11.150;2023-08-06T12:04:26;94256.44;;;16.72;60.21
67545;BME280;54380;47.770;11.150;2023-08-06T12:06:52;94251.41;;;16.70;60.22
67545;BME280;54380;47.770;11.150;2023-08-06T12:09:19;94248.06;;;16.78;60.30
67545;BME280;54380;47.770;11.150;2023-08-06T12:11:47;94245.75;;;16.85;59.67
67545;BME280;54380;47.770;11.150;2023-08-06T12:14:13;94243.41;;;16.93;59.39
67545;BME280;54380;47.770;11.150;2023-08-06T12:16:40;94255.34;;;16.95;59.43
67545;BME280;54380;47.770;11.150;2023-08-06T12:19:08;94244.69;;;16.95;59.33
67545;BME280;54380;47.770;11.150;2023-08-06T12:21:34;94244.63;;;17.09;59.24
67545;BME280;54380;47.770;11.150;2023-08-06T12:24:01;94250.94;;;17.22;57.93
67545;BME280;54380;47.770;11.150;2023-08-06T12:26:43;94239.19;;;17.23;58.48
67545;BME280;54380;47.770;11.150;2023-08-06T12:29:24;94252.16;;;17.47;58.80
67545;BME280;54380;47.770;11.150;2023-08-06T12:37:23;94254.50;;;18.06;57.06
67545;BME280;54380;47.770;11.150;2023-08-06T12:39:50;94256.25;;;18.10;56.64
67545;BME280;54380;47.770;11.150;2023-08-06T12:42:17;94267.09;;;18.05;56.63
67545;BME280;54380;47.770;11.150;2023-08-06T12:44:49;94282.47;;;17.99;55.97
67545;BME280;54380;47.770;11.150;2023-08-06T12:47:16;94268.31;;;17.90;55.36
67545;BME280;54380;47.770;11.150;2023-08-06T12:49:44;94276.00;;;17.92;55.83
67545;BME280;54380;47.770;11.150;2023-08-06T12:52:10;94280.56;;;17.91;55.44
67545;BME280;54380;47.770;11.150;2023-08-06T12:54:42;94281.63;;;17.82;55.81
67545;BME280;54380;47.770;11.150;2023-08-06T12:57:12;94279.88;;;17.77;56.41
67545;BME280;54380;47.770;11.150;2023-08-06T12:59:39;94282.13;;;17.84;56.55
67545;BME280;54380;47.770;11.150;2023-08-06T13:02:10;94288.56;;;17.83;56.05
67545;BME280;54380;47.770;11.150;2023-08-06T13:04:36;94293.19;;;17.68;56.69
67545;BME280;54380;47.770;11.150;2023-08-06T13:07:04;94298.63;;;17.54;57.03
67545;BME280;54380;47.770;11.150;2023-08-06T13:09:48;94294.63;;;17.34;57.55
67545;BME280;54380;47.770;11.150;2023-08-06T13:12:16;94295.34;;;17.26;58.28
67545;BME280;54380;47.770;11.150;2023-08-06T13:14:47;94315.06;;;17.17;58.00
67545;BME280;54380;47.770;11.150;2023-08-06T13:17:13;94325.53;;;17.04;58.62
67545;BME280;54380;47.770;11.150;2023-08-06T13:19:40;94316.19;;;16.93;58.78
67545;BME280;54380;47.770;11.150;2023-08-06T13:22:07;94314.56;;;16.83;59.13
67545;BME280;54380;47.770;11.150;2023-08-06T13:24:35;94319.00;;;16.74;59.34
67545;BME280;54380;47.770;11.150;2023-08-06T13:30:02;94315.13;;;16.58;60.50
67545;BME280;54380;47.770;11.150;2023-08-06T13:32:29;94312.66;;;16.48;60.34
67545;BME280;54380;47.770;11.150;2023-08-06T13:35:10;94309.22;;;16.47;61.04
67545;BME280;54380;47.770;11.150;2023-08-06T13:37:51;94310.09;;;16.56;61.23
67545;BME280;54380;47.770;11.150;2023-08-06T13:40:17;94309.38;;;16.64;61.26
67545;BME280;54380;47.770;11.150;2023-08-06T13:42:52;94313.94;;;16.86;61.36
67545;BME280;54380;47.770;11.150;2023-08-06T13:45:35;94318.19;;;17.10;60.37
67545;BME280;54380;47.770;11.150;2023-08-06T13:48:04;94316.34;;;17.19;60.37
67545;BME280;54380;47.770;11.150;2023-08-06T13:50:32;94308.69;;;17.26;59.96
67545;BME280;54380;47.770;11.150;2023-08-06T13:52:59;94304.34;;;17.30;59.89
67545;BME280;54380;47.770;11.150;2023-08-06T13:55:39;94306.81;;;17.27;59.43
67545;BME280;54380;47.770;11.150;2023-08-06T13:58:20;94324.75;;;17.35;59.68
67545;BME280;54380;47.770;11.150;2023-08-06T14:00:56;94299.78;;;17.31;58.26
67545;BME280;54380;47.770;11.150;2023-08-06T14:03:24;94290.34;;;17.25;59.09
67545;BME280;54380;47.770;11.150;2023-08-06T14:05:51;94315.44;;;17.24;59.35
67545;BME280;54380;47.770;11.150;2023-08-06T14:08:19;94306.00;;;17.18;59.29
67545;BME280;54380;47.770;11.150;2023-08-06T14:10:53;94317.28;;;17.15;59.11
67545;BME280;54380;47.770;11.150;2023-08-06T14:13:36;94314.13;;;17.13;59.07
67545;BME280;54380;47.770;11.150;2023-08-06T14:16:12;94322.84;;;17.04;59.77
67545;BME280;54380;47.770;11.150;2023-08-06T14:18:57;94322.06;;;17.04;58.33
67545;BME280;54380;47.770;11.150;2023-08-06T14:21:38;94326.59;;;17.03;58.99
67545;BME280;54380;47.770;11.150;2023-08-06T14:24:04;94333.81;;;17.03;59.12
67545;BME280;54380;47.770;11.150;2023-08-06T14:26:45;94320.22;;;17.13;59.27
67545;BME280;54380;47.770;11.150;2023-08-06T14:29:13;94330.66;;;17.23;59.44
67545;BME280;54380;47.770;11.150;2023-08-06T14:31:59;94333.06;;;17.33;58.62
67545;BME280;54380;47.770;11.150;2023-08-06T14:34:26;94344.84;;;17.32;58.50
67545;BME280;54380;47.770;11.150;2023-08-06T14:36:54;94335.84;;;17.28;58.51
67545;BME280;54380;47.770;11.150;2023-08-06T14:39:22;94337.28;;;17.34;58.53
67545;BME280;54380;47.770;11.150;2023-08-06T14:42:04;94334.63;;;17.34;58.41
67545;BME280;54380;47.770;11.150;2023-08-06T14:44:45;94350.94;;;17.33;58.42
67545;BME280;54380;47.770;11.150;2023-08-06T14:47:14;94356.72;;;17.26;58.30
67545;BME280;54380;47.770;11.150;2023-08-06T14:49:45;94363.75;;;17.22;57.75
67545;BME280;54380;47.770;11.150;2023-08-06T14:52:26;94343.88;;;17.06;58.78
67545;BME280;54380;47.770;11.150;2023-08-06T14:54:52;94374.03;;;16.93;59.09
67545;BME280;54380;47.770;11.150;2023-08-06T14:57:35;94379.31;;;16.84;59.65
67545;BME280;54380;47.770;11.150;2023-08-06T15:00:04;94387.31;;;16.84;59.93
67545;BME280;54380;47.770;11.150;2023-08-06T15:05:29;94382.84;;;16.93;60.08
67545;BME280;54380;47.770;11.150;2023-08-06T15:07:56;94381.44;;;16.96;60.03
67545;BME280;54380;47.770;11.150;2023-08-06T15:10:23;94383.19;;;17.00;60.34
67545;BME280;54380;47.770;11.150;2023-08-06T15:12:53;94396.72;;;17.04;60.02
67545;BME280;54380;47.770;11.150;2023-08-06T15:15:34;94396.53;;;17.00;59.87
67545;BME280;54380;47.770;11.150;2023-08-06T15:18:03;94388.72;;;17.04;59.93
67545;BME280;54380;47.770;11.150;2023-08-06T15:30:22;94407.38;;;17.04;60.17
67545;BME280;54380;47.770;11.150;2023-08-06T15:32:49;94398.91;;;17.02;60.13
67545;BME280;54380;47.770;11.150;2023-08-06T15:38:07;94419.84;;;16.95;60.07
67545;BME280;54380;47.770;11.150;2023-08-06T15:41:06;94414.03;;;16.93;60.38
67545;BME280;54380;47.770;11.150;2023-08-06T15:43:50;94429.66;;;16.85;59.81
67545;BME280;54380;47.770;11.150;2023-08-06T15:46:45;94428.06;;;16.84;60.42
67545;BME280;54380;47.770;11.150;2023-08-06T15:49:12;94431.41;;;16.76;60.71
67545;BME280;54380;47.770;11.150;2023-08-06T15:51:38;94436.84;;;16.71;60.60
67545;BME280;54380;47.770;11.150;2023-08-06T15:54:30;94444.06;;;16.71;60.61
67545;BME280;54380;47.770;11.150;2023-08-06T15:56:57;94438.25;;;16.68;61.03
67545;BME280;54380;47.770;11.150;2023-08-06T15:59:26;94445.16;;;16.70;60.86
67545;BME280;54380;47.770;11.150;2023-08-06T16:01:57;94443.88;;;16.67;60.82
67545;BME280;54380;47.770;11.150;2023-08-06T16:04:26;94450.78;;;16.68;60.67
67545;BME280;54380;47.770;11.150;2023-08-06T16:06:53;94451.88;;;16.67;60.69
67545;BME280;54380;47.770;11.150;2023-08-06T16:09:34;94439.03;;;16.69;60.85
67545;BME280;54380;47.770;11.150;2023-08-06T16:12:00;94439.84;;;16.70;60.79
67545;BME280;54380;47.770;11.150;2023-08-06T16:14:36;94440.13;;;16.68;60.54
67545;BME280;54380;47.770;11.150;2023-08-06T16:22:42;94443.38;;;16.65;59.99
67545;BME280;54380;47.770;11.150;2023-08-06T16:25:09;94446.84;;;16.65;59.82
67545;BME280;54380;47.770;11.150;2023-08-06T16:27:46;94454.81;;;16.65;60.15
67545;BME280;54380;47.770;11.150;2023-08-06T16:33:12;94452.88;;;16.57;60.39
67545;BME280;54380;47.770;11.150;2023-08-06T16:35:39;94469.25;;;16.51;60.47
67545;BME280;54380;47.770;11.150;2023-08-06T16:38:36;94501.91;;;16.42;60.89
67545;BME280;54380;47.770;11.150;2023-08-06T16:41:03;94508.22;;;16.33;60.80
67545;BME280;54380;47.770;11.150;2023-08-06T16:43:33;94523.50;;;16.27;61.36
67545;BME280;54380;47.770;11.150;2023-08-06T16:45:59;94529.72;;;16.22;61.29
67545;BME280;54380;47.770;11.150;2023-08-06T16:48:26;94531.63;;;16.03;61.51
67545;BME280;54380;47.770;11.150;2023-08-06T16:50:54;94519.09;;;15.90;61.56
67545;BME280;54380;47.770;11.150;2023-08-06T16:53:22;94520.06;;;15.80;61.97
67545;BME280;54380;47.770;11.150;2023-08-06T16:55:59;94519.66;;;15.73;62.53
67545;BME280;54380;47.770;11.150;2023-08-06T16:58:43;94518.47;;;15.79;62.75
67545;BME280;54380;47.770;11.150;2023-08-06T17:01:18;94514.25;;;15.78;62.57
67545;BME280;54380;47.770;11.150;2023-08-06T17:37:33;94539.75;;;15.60;63.01
67545;BME280;54380;47.770;11.150;2023-08-06T17:39:59;94540.63;;;15.55;63.21
67545;BME280;54380;47.770;11.150;2023-08-06T17:42:26;94542.81;;;15.53;63.63
67545;BME280;54380;47.770;11.150;2023-08-06T17:44:53;94556.44;;;15.47;63.65
67545;BME280;54380;47.770;11.150;2023-08-06T17:47:20;94557.91;;;15.39;63.27
67545;BME280;54380;47.770;11.150;2023-08-06T17:50:02;94562.22;;;15.35;63.43
67545;BME280;54380;47.770;11.150;2023-08-06T17:52:29;94561.47;;;15.29;63.85
67545;BME280;54380;47.770;11.150;2023-08-06T17:54:59;94567.88;;;15.28;63.73
67545;BME280;54380;47.770;11.150;2023-08-06T17:57:25;94570.41;;;15.20;63.42
67545;BME280;54380;47.770;11.150;2023-08-06T17:59:52;94565.44;;;15.13;63.68
67545;BME280;54380;47.770;11.150;2023-08-06T18:02:19;94584.94;;;15.03;63.76
67545;BME280;54380;47.770;11.150;2023-08-06T18:04:45;94592.75;;;14.95;64.40
67545;BME280;54380;47.770;11.150;2023-08-06T18:07:13;94597.41;;;14.84;64.09
67545;BME280;54380;47.770;11.150;2023-08-06T18:09:40;94596.47;;;14.75;64.46
67545;BME280;54380;47.770;11.150;2023-08-06T18:12:08;94596.56;;;14.64;64.85
67545;BME280;54380;47.770;11.150;2023-08-06T19:21:16;94643.22;;;14.12;65.02
67545;BME280;54380;47.770;11.150;2023-08-06T19:23:44;94646.66;;;14.13;65.00
67545;BME280;54380;47.770;11.150;2023-08-06T19:26:15;94652.72;;;14.18;65.24
67545;BME280;54380;47.770;11.150;2023-08-06T19:31:52;94653.53;;;14.14;65.58
67545;BME280;54380;47.770;11.150;2023-08-06T19:49:49;94655.09;;;13.86;66.07
67545;BME280;54380;47.770;11.150;2023-08-06T19:52:15;94652.97;;;13.88;66.03
67545;BME280;54380;47.770;11.150;2023-08-06T20:54:56;94670.06;;;13.01;65.14
67545;BME280;54380;47.770;11.150;2023-08-06T20:57:23;94675.63;;;12.94;65.69
67545;BME280;54380;47.770;11.150;2023-08-06T21:00:04;94676.72;;;12.88;65.60
67545;BME280;54380;47.770;11.150;2023-08-06T21:02:31;94669.81;;;12.87;66.42
67545;BME280;54380;47.770;11.150;2023-08-06T21:05:11;94667.97;;;12.93;66.63
67545;BME280;54380;47.770;11.150;2023-08-06T21:07:53;94670.56;;;13.03;66.99
67545;BME280;54380;47.770;11.150;2023-08-06T21:19:55;94677.22;;;13.01;65.73
67545;BME280;54380;47.770;11.150;2023-08-06T21:22:22;94680.41;;;12.92;65.27
67545;BME280;54380;47.770;11.150;2023-08-06T21:24:49;94679.63;;;12.92;65.97
67545;BME280;54380;47.770;11.150;2023-08-06T21:27:29;94686.00;;;12.91;65.00
67545;BME280;54380;47.770;11.150;2023-08-06T21:30:10;94685.72;;;12.87;65.72
67545;BME280;54380;47.770;11.150;2023-08-06T21:32:52;94696.84;;;12.89;65.88
67545;BME280;54380;47.770;11.150;2023-08-06T22:31:55;94690.47;;;13.01;65.52
67545;BME280;54380;47.770;11.150;2023-08-06T22:34:22;94684.91;;;13.02;65.21
67545;BME280;54380;47.770;11.150;2023-08-06T22:36:49;94687.28;;;13.04;65.28
67545;BME280;54380;47.770;11.150;2023-08-06T22:39:15;94688.06;;;13.04;65.22
67545;BME280;54380;47.770;11.150;2023-08-06T22:41:42;94692.06;;;13.02;65.34
67545;BME280;54380;47.770;11.150;2023-08-06T22:44:09;94690.19;;;13.07;65.67
67545;BME280;54380;47.770;11.150;2023-08-06T22:46:35;94696.25;;;13.08;65.66
67545;BME280;54380;47.770;11.150;2023-08-06T22:49:03;94690.19;;;13.07;65.25
67545;BME280;54380;47.770;11.150;2023-08-06T22:51:30;94699.47;;;13.05;64.89
67545;BME280;54380;47.770;11.150;2023-08-06T22:53:57;94697.88;;;13.09;65.57
67545;BME280;54380;47.770;11.150;2023-08-06T22:56:24;94687.00;;;13.05;65.53
67545;BME280;54380;47.770;11.150;2023-08-06T22:58:51;94695.72;;;13.06;66.00
67545;BME280;54380;47.770;11.150;2023-08-06T23:01:17;94692.81;;;13.07;66.04
67545;BME280;54380;47.770;11.150;2023-08-06T23:03:44;94703.16;;;13.09;65.79
67545;BME280;54380;47.770;11.150;2023-08-06T23:06:12;94711.91;;;13.09;65.90
67545;BME280;54380;47.770;11.150;2023-08-06T23:08:39;94701.03;;;13.11;65.90
67545;BME280;54380;47.770;11.150;2023-08-06T23:11:06;94695.72;;;13.11;65.51
67545;BME280;54380;47.770;11.150;2023-08-06T23:13:34;94700.22;;;13.10;66.18
67545;BME280;54380;47.770;11.150;2023-08-06T23:16:01;94699.69;;;13.08;65.83
67545;BME280;54380;47.770;11.150;2023-08-06T23:18:28;94705.53;;;13.05;65.74
67545;BME280;54380;47.770;11.150;2023-08-06T23:20:54;94697.59;;;13.00;65.84
67545;BME280;54380;47.770;11.150;2023-08-06T23:23:22;94704.53;;;12.96;66.34
67545;BME280;54380;47.770;11.150;2023-08-06T23:25:49;94697.09;;;12.98;66.46
67545;BME280;54380;47.770;11.150;2023-08-06T23:28:16;94705.31;;;13.02;66.85
67545;BME280;54380;47.770;11.150;2023-08-06T23:30:42;94704.78;;;13.00;66.47
67545;BME280;54380;47.770;11.150;2023-08-06T23:33:13;94708.75;;;12.97;66.49
67545;BME280;54380;47.770;11.150;2023-08-06T23:35:39;94713.53;;;12.90;66.95
67545;BME280;54380;47.770;11.150;2023-08-06T23:38:06;94715.94;;;12.81;66.84
67545;BME280;54380;47.770;11.150;2023-08-06T23:40:35;94714.38;;;12.80;67.40
67545;BME280;54380;47.770;11.150;2023-08-06T23:43:01;94713.28;;;12.81;67.07
67545;BME280;54380;47.770;11.150;2023-08-06T23:45:28;94712.25;;;12.77;67.11
67545;BME280;54380;47.770;11.150;2023-08-06T23:47:55;94718.59;;;12.71;66.33
67545;BME280;54380;47.770;11.150;2023-08-06T23:50:22;94713.84;;;12.68;66.35
67545;BME280;54380;47.770;11.150;2023-08-06T23:52:48;94728.66;;;12.69;66.97
67545;BME280;54380;47.770;11.150;2023-08-06T23:55:19;94729.47;;;12.64;66.28
67545;BME280;54380;47.770;11.150;2023-08-06T23:57:48;94722.31;;;12.60;67.10
